sensor_id;sensor_type;location;lat;lon;timestamp;temperature;humidity
20366;DHT22;10341;49.894;8.822;2022-07-11T00:03:48;16.30;99.90
20366;DHT22;10341;49.894;8.822;2022-07-11T00:09:07;16.20;99.90
20366;DHT22;10341;49.894;8.822;2022-07-11T00:14:27;16.20;99.90
20366;DHT22;10341;49.894;8.822;2022-07-11T00:19:46;16.10;99.90
20366;DHT22;10341;49.894;8.822;2022-07-11T00:25:06;16.00;99.90
20366;DHT22;10341;49.894;8.822;2022-07-11T00:30:26;16.00;99.90
20366;DHT22;10341;49.894;8.822;2022-07-11T00:35:45;15.90;99.90
20366;DHT22;10341;49.894;8.822;2022-07-11T00:41:05;15.70;99.90
20366;DHT22;10341;49.894;8.822;2022-07-11T00:46:26;15.70;99.90
20366;DHT22;10341;49.894;8.822;2022-07-11T00:51:45;15.70;99.90
20366;DHT22;10341;49.894;8.822;2022-07-11T00:57:05;15.70;99.90
20366;DHT22;10341;49.894;8.822;2022-07-11T01:02:24;15.80;99.90
20366;DHT22;10341;49.894;8.822;2022-07-11T01:07:44;15.80;99.90
20366;DHT22;10341;49.894;8.822;2022-07-11T01:13:03;15.80;99.90
20366;DHT22;10341;49.894;8.822;2022-07-11T01:18:22;15.80;99.90
20366;DHT22;10341;49.894;8.822;2022-07-11T01:23:41;15.80;99.90
20366;DHT22;10341;49.894;8.822;2022-07-11T01:29:12;15.90;99.90
20366;DHT22;10341;49.894;8.822;2022-07-11T01:34:32;15.80;99.90
20366;DHT22;10341;49.894;8.822;2022-07-11T01:39:51;15.80;99.90
20366;DHT22;10341;49.894;8.822;2022-07-11T01:45:10;15.90;99.90
20366;DHT22;10341;49.894;8.822;2022-07-11T01:50:30;15.90;99.90
20366;DHT22;10341;49.894;8.822;2022-07-11T01:55:50;15.90;99.90
20366;DHT22;10341;49.894;8.822;2022-07-11T02:01:09;15.90;99.90
20366;DHT22;10341;49.894;8.822;2022-07-11T02:06:30;15.90;99.90
20366;DHT22;10341;49.894;8.822;2022-07-11T02:11:49;15.90;99.90
20366;DHT22;10341;49.894;8.822;2022-07-11T02:17:08;15.90;99.90
20366;DHT22;10341;49.894;8.822;2022-07-11T02:22:27;15.90;99.90
20366;DHT22;10341;49.894;8.822;2022-07-11T02:27:49;15.90;99.90
20366;DHT22;10341;49.894;8.822;2022-07-11T02:33:09;15.90;99.90
20366;DHT22;10341;49.894;8.822;2022-07-11T02:38:34;15.90;99.90
20366;DHT22;10341;49.894;8.822;2022-07-11T02:43:53;15.90;99.90
20366;DHT22;10341;49.894;8.822;2022-07-11T02:49:12;15.90;99.90
20366;DHT22;10341;49.894;8.822;2022-07-11T02:54:32;15.90;99.90
20366;DHT22;10341;49.894;8.822;2022-07-11T02:59:51;15.90;99.90
20366;DHT22;10341;49.894;8.822;2022-07-11T03:05:10;15.90;99.90
20366;DHT22;10341;49.894;8.822;2022-07-11T03:10:31;15.90;99.90
20366;DHT22;10341;49.894;8.822;2022-07-11T03:15:50;15.90;99.90
20366;DHT22;10341;49.894;8.822;2022-07-11T03:21:10;15.80;99.90
20366;DHT22;10341;49.894;8.822;2022-07-11T03:26:29;15.90;99.90
20366;DHT22;10341;49.894;8.822;2022-07-11T03:31:49;15.90;99.90
20366;DHT22;10341;49.894;8.822;2022-07-11T03:37:08;15.80;99.90
20366;DHT22;10341;49.894;8.822;2022-07-11T03:42:29;15.80;99.90
20366;DHT22;10341;49.894;8.822;2022-07-11T03:47:49;15.80;99.90
20366;DHT22;10341;49.894;8.822;2022-07-11T03:53:08;15.80;99.90
20366;DHT22;10341;49.894;8.822;2022-07-11T03:58:27;15.80;99.90
20366;DHT22;10341;49.894;8.822;2022-07-11T04:03:47;15.90;99.90
20366;DHT22;10341;49.894;8.822;2022-07-11T04:09:06;15.90;99.90
20366;DHT22;10341;49.894;8.822;2022-07-11T04:14:26;16.00;99.90
20366;DHT22;10341;49.894;8.822;2022-07-11T04:19:45;16.00;99.90
20366;DHT22;10341;49.894;8.822;2022-07-11T04:25:04;16.10;99.90
20366;DHT22;10341;49.894;8.822;2022-07-11T04:30:24;16.20;99.90
20366;DHT22;10341;49.894;8.822;2022-07-11T04:35:43;16.20;99.90
20366;DHT22;10341;49.894;8.822;2022-07-11T04:41:01;16.30;99.90
20366;DHT22;10341;49.894;8.822;2022-07-11T04:46:21;16.40;99.90
20366;DHT22;10341;49.894;8.822;2022-07-11T04:51:39;16.60;99.90
20366;DHT22;10341;49.894;8.822;2022-07-11T04:56:59;16.70;99.90
20366;DHT22;10341;49.894;8.822;2022-07-11T05:02:18;16.80;99.90
20366;DHT22;10341;49.894;8.822;2022-07-11T05:07:37;16.90;99.90
20366;DHT22;10341;49.894;8.822;2022-07-11T05:12:57;17.00;99.90
20366;DHT22;10341;49.894;8.822;2022-07-11T05:18:16;17.20;99.90
20366;DHT22;10341;49.894;8.822;2022-07-11T05:23:35;17.30;99.90
20366;DHT22;10341;49.894;8.822;2022-07-11T05:28:54;17.50;99.90
20366;DHT22;10341;49.894;8.822;2022-07-11T05:34:14;17.70;99.90
20366;DHT22;10341;49.894;8.822;2022-07-11T05:39:33;17.90;99.90
20366;DHT22;10341;49.894;8.822;2022-07-11T05:44:52;18.10;99.90
20366;DHT22;10341;49.894;8.822;2022-07-11T05:50:11;18.20;99.90
20366;DHT22;10341;49.894;8.822;2022-07-11T06:01:01;18.40;99.90
20366;DHT22;10341;49.894;8.822;2022-07-11T06:06:20;18.30;99.90
20366;DHT22;10341;49.894;8.822;2022-07-11T06:11:39;18.40;99.90
20366;DHT22;10341;49.894;8.822;2022-07-11T06:16:58;18.50;99.90
20366;DHT22;10341;49.894;8.822;2022-07-11T06:22:18;18.60;99.90
20366;DHT22;10341;49.894;8.822;2022-07-11T06:27:37;18.70;99.90
20366;DHT22;10341;49.894;8.822;2022-07-11T06:32:57;18.90;99.90
20366;DHT22;10341;49.894;8.822;2022-07-11T06:38:16;19.00;99.90
20366;DHT22;10341;49.894;8.822;2022-07-11T06:43:35;19.00;99.90
20366;DHT22;10341;49.894;8.822;2022-07-11T06:48:54;19.30;99.90
20366;DHT22;10341;49.894;8.822;2022-07-11T06:54:13;19.50;99.90
20366;DHT22;10341;49.894;8.822;2022-07-11T06:59:32;19.80;99.90
20366;DHT22;10341;49.894;8.822;2022-07-11T07:04:52;19.90;99.90
20366;DHT22;10341;49.894;8.822;2022-07-11T07:10:11;20.10;99.90
20366;DHT22;10341;49.894;8.822;2022-07-11T07:15:30;20.30;99.90
20366;DHT22;10341;49.894;8.822;2022-07-11T07:20:49;20.60;99.90
20366;DHT22;10341;49.894;8.822;2022-07-11T07:26:09;20.80;99.90
20366;DHT22;10341;49.894;8.822;2022-07-11T07:31:29;21.00;99.90
20366;DHT22;10341;49.894;8.822;2022-07-11T07:36:48;21.10;99.90
20366;DHT22;10341;49.894;8.822;2022-07-11T07:42:07;21.00;99.90
20366;DHT22;10341;49.894;8.822;2022-07-11T07:47:27;20.90;99.90
20366;DHT22;10341;49.894;8.822;2022-07-11T07:52:47;21.10;99.90
20366;DHT22;10341;49.894;8.822;2022-07-11T07:58:06;21.50;99.90
20366;DHT22;10341;49.894;8.822;2022-07-11T08:03:25;21.90;99.90
20366;DHT22;10341;49.894;8.822;2022-07-11T08:08:45;22.20;99.90
20366;DHT22;10341;49.894;8.822;2022-07-11T08:14:04;22.20;99.90
20366;DHT22;10341;49.894;8.822;2022-07-11T08:19:26;21.90;99.90
20366;DHT22;10341;49.894;8.822;2022-07-11T08:24:47;21.80;99.90
20366;DHT22;10341;49.894;8.822;2022-07-11T08:30:07;21.80;99.90
20366;DHT22;10341;49.894;8.822;2022-07-11T08:35:27;22.90;99.90
20366;DHT22;10341;49.894;8.822;2022-07-11T08:40:49;23.00;99.90
20366;DHT22;10341;49.894;8.822;2022-07-11T08:46:10;22.80;99.90
20366;DHT22;10341;49.894;8.822;2022-07-11T08:51:30;23.50;99.90
20366;DHT22;10341;49.894;8.822;2022-07-11T08:56:50;25.60;99.90
20366;DHT22;10341;49.894;8.822;2022-07-11T09:02:11;26.60;98.40
20366;DHT22;10341;49.894;8.822;2022-07-11T09:07:32;26.50;97.00
20366;DHT22;10341;49.894;8.822;2022-07-11T09:12:58;25.40;98.10
20366;DHT22;10341;49.894;8.822;2022-07-11T09:18:38;24.50;99.00
20366;DHT22;10341;49.894;8.822;2022-07-11T09:24:00;23.80;99.90
20366;DHT22;10341;49.894;8.822;2022-07-11T09:29:38;23.80;99.90
20366;DHT22;10341;49.894;8.822;2022-07-11T09:35:01;23.60;99.90
20366;DHT22;10341;49.894;8.822;2022-07-11T09:40:21;23.30;99.90
20366;DHT22;10341;49.894;8.822;2022-07-11T09:45:41;25.30;99.30
20366;DHT22;10341;49.894;8.822;2022-07-11T09:51:00;25.30;97.90
20366;DHT22;10341;49.894;8.822;2022-07-11T10:01:52;25.00;98.90
20366;DHT22;10341;49.894;8.822;2022-07-11T10:07:11;24.50;98.60
20366;DHT22;10341;49.894;8.822;2022-07-11T10:12:31;24.50;99.70
20366;DHT22;10341;49.894;8.822;2022-07-11T10:24:22;25.00;97.70
20366;DHT22;10341;49.894;8.822;2022-07-11T10:29:50;26.90;95.90
20366;DHT22;10341;49.894;8.822;2022-07-11T10:35:11;30.50;92.30
20366;DHT22;10341;49.894;8.822;2022-07-11T10:40:53;30.80;90.30
20366;DHT22;10341;49.894;8.822;2022-07-11T10:46:19;28.60;92.50
20366;DHT22;10341;49.894;8.822;2022-07-11T10:57:22;25.50;95.10
20366;DHT22;10341;49.894;8.822;2022-07-11T11:03:03;24.50;97.20
20366;DHT22;10341;49.894;8.822;2022-07-11T11:25:09;25.90;95.20
20366;DHT22;10341;49.894;8.822;2022-07-11T11:30:28;26.40;95.90
20366;DHT22;10341;49.894;8.822;2022-07-11T11:36:07;26.50;94.80
20366;DHT22;10341;49.894;8.822;2022-07-11T11:41:30;26.30;95.80
20366;DHT22;10341;49.894;8.822;2022-07-11T11:46:50;26.40;95.10
20366;DHT22;10341;49.894;8.822;2022-07-11T11:52:11;26.60;95.00
20366;DHT22;10341;49.894;8.822;2022-07-11T11:57:31;27.10;94.30
20366;DHT22;10341;49.894;8.822;2022-07-11T12:02:51;26.60;94.10
20366;DHT22;10341;49.894;8.822;2022-07-11T12:08:25;26.70;93.60
20366;DHT22;10341;49.894;8.822;2022-07-11T12:13:44;26.90;92.70
20366;DHT22;10341;49.894;8.822;2022-07-11T12:19:03;27.10;93.50
20366;DHT22;10341;49.894;8.822;2022-07-11T12:24:26;27.40;93.30
20366;DHT22;10341;49.894;8.822;2022-07-11T12:29:48;27.60;92.90
20366;DHT22;10341;49.894;8.822;2022-07-11T12:35:12;27.40;92.80
20366;DHT22;10341;49.894;8.822;2022-07-11T12:40:32;26.90;92.90
20366;DHT22;10341;49.894;8.822;2022-07-11T12:46:02;26.90;93.10
20366;DHT22;10341;49.894;8.822;2022-07-11T12:51:29;26.80;93.00
20366;DHT22;10341;49.894;8.822;2022-07-11T12:56:53;28.40;92.30
20366;DHT22;10341;49.894;8.822;2022-07-11T13:02:14;30.00;90.00
20366;DHT22;10341;49.894;8.822;2022-07-11T13:07:34;29.80;88.00
20366;DHT22;10341;49.894;8.822;2022-07-11T13:13:13;29.10;89.30
20366;DHT22;10341;49.894;8.822;2022-07-11T13:18:33;30.50;88.50
20366;DHT22;10341;49.894;8.822;2022-07-11T13:23:52;32.20;84.60
20366;DHT22;10341;49.894;8.822;2022-07-11T13:29:11;33.60;81.30
20366;DHT22;10341;49.894;8.822;2022-07-11T13:34:30;33.80;77.90
20366;DHT22;10341;49.894;8.822;2022-07-11T13:39:50;34.10;75.10
20366;DHT22;10341;49.894;8.822;2022-07-11T13:45:09;33.00;77.50
20366;DHT22;10341;49.894;8.822;2022-07-11T13:50:28;31.50;80.20
20366;DHT22;10341;49.894;8.822;2022-07-11T13:55:47;31.50;80.40
20366;DHT22;10341;49.894;8.822;2022-07-11T14:01:07;31.00;79.80
20366;DHT22;10341;49.894;8.822;2022-07-11T14:06:26;30.70;80.00
20366;DHT22;10341;49.894;8.822;2022-07-11T14:11:45;30.00;82.40
20366;DHT22;10341;49.894;8.822;2022-07-11T14:17:05;29.10;85.20
20366;DHT22;10341;49.894;8.822;2022-07-11T14:22:24;28.80;85.00
20366;DHT22;10341;49.894;8.822;2022-07-11T14:27:43;29.90;84.10
20366;DHT22;10341;49.894;8.822;2022-07-11T14:33:02;31.80;81.20
20366;DHT22;10341;49.894;8.822;2022-07-11T14:38:21;33.00;76.10
20366;DHT22;10341;49.894;8.822;2022-07-11T14:43:41;33.60;75.50
20366;DHT22;10341;49.894;8.822;2022-07-11T14:49:00;33.80;73.80
20366;DHT22;10341;49.894;8.822;2022-07-11T14:54:19;33.30;74.10
20366;DHT22;10341;49.894;8.822;2022-07-11T14:59:38;33.50;75.40
20366;DHT22;10341;49.894;8.822;2022-07-11T15:04:58;33.30;74.80
20366;DHT22;10341;49.894;8.822;2022-07-11T15:10:17;33.80;72.90
20366;DHT22;10341;49.894;8.822;2022-07-11T15:15:55;34.30;72.40
20366;DHT22;10341;49.894;8.822;2022-07-11T15:21:14;32.60;74.10
20366;DHT22;10341;49.894;8.822;2022-07-11T15:26:34;30.70;78.70
20366;DHT22;10341;49.894;8.822;2022-07-11T15:31:53;31.60;77.70
20366;DHT22;10341;49.894;8.822;2022-07-11T15:37:12;32.10;75.10
20366;DHT22;10341;49.894;8.822;2022-07-11T15:42:32;29.90;79.70
20366;DHT22;10341;49.894;8.822;2022-07-11T15:47:51;30.90;77.20
20366;DHT22;10341;49.894;8.822;2022-07-11T15:53:11;32.10;76.80
20366;DHT22;10341;49.894;8.822;2022-07-11T15:58:31;32.40;76.20
20366;DHT22;10341;49.894;8.822;2022-07-11T16:03:51;32.40;74.60
20366;DHT22;10341;49.894;8.822;2022-07-11T16:09:10;30.60;77.00
20366;DHT22;10341;49.894;8.822;2022-07-11T16:14:29;29.30;80.90
20366;DHT22;10341;49.894;8.822;2022-07-11T16:19:48;28.10;83.30
20366;DHT22;10341;49.894;8.822;2022-07-11T16:25:08;27.40;84.90
20366;DHT22;10341;49.894;8.822;2022-07-11T16:30:28;27.30;86.90
20366;DHT22;10341;49.894;8.822;2022-07-11T16:35:52;27.70;85.10
20366;DHT22;10341;49.894;8.822;2022-07-11T16:41:11;27.50;85.00
20366;DHT22;10341;49.894;8.822;2022-07-11T16:46:49;27.90;84.30
20366;DHT22;10341;49.894;8.822;2022-07-11T16:52:08;27.60;84.80
20366;DHT22;10341;49.894;8.822;2022-07-11T16:57:27;26.90;86.60
20366;DHT22;10341;49.894;8.822;2022-07-11T17:02:46;26.80;86.70
20366;DHT22;10341;49.894;8.822;2022-07-11T17:08:07;26.90;87.40
20366;DHT22;10341;49.894;8.822;2022-07-11T17:13:47;27.80;85.50
20366;DHT22;10341;49.894;8.822;2022-07-11T17:19:06;27.90;85.20
20366;DHT22;10341;49.894;8.822;2022-07-11T17:24:26;27.60;86.40
20366;DHT22;10341;49.894;8.822;2022-07-11T17:29:45;27.00;87.50
20366;DHT22;10341;49.894;8.822;2022-07-11T17:35:05;26.50;89.50
20366;DHT22;10341;49.894;8.822;2022-07-11T17:40:25;25.70;90.40
20366;DHT22;10341;49.894;8.822;2022-07-11T17:45:44;25.30;91.20
20366;DHT22;10341;49.894;8.822;2022-07-11T17:51:05;25.00;92.10
20366;DHT22;10341;49.894;8.822;2022-07-11T17:56:25;24.70;92.80
20366;DHT22;10341;49.894;8.822;2022-07-11T18:01:44;24.60;93.30
20366;DHT22;10341;49.894;8.822;2022-07-11T18:07:04;24.30;93.30
20366;DHT22;10341;49.894;8.822;2022-07-11T18:12:24;24.00;93.90
20366;DHT22;10341;49.894;8.822;2022-07-11T18:17:43;23.70;94.60
20366;DHT22;10341;49.894;8.822;2022-07-11T18:23:02;23.40;95.60
20366;DHT22;10341;49.894;8.822;2022-07-11T18:28:21;23.00;96.10
20366;DHT22;10341;49.894;8.822;2022-07-11T18:33:40;22.80;96.60
20366;DHT22;10341;49.894;8.822;2022-07-11T18:39:00;22.60;97.20
20366;DHT22;10341;49.894;8.822;2022-07-11T18:44:38;22.40;98.10
20366;DHT22;10341;49.894;8.822;2022-07-11T18:49:57;22.20;98.40
20366;DHT22;10341;49.894;8.822;2022-07-11T18:55:16;22.10;99.20
20366;DHT22;10341;49.894;8.822;2022-07-11T19:00:35;22.10;98.70
20366;DHT22;10341;49.894;8.822;2022-07-11T19:05:55;22.00;98.90
20366;DHT22;10341;49.894;8.822;2022-07-11T19:11:15;22.00;99.50
20366;DHT22;10341;49.894;8.822;2022-07-11T19:16:34;21.90;99.50
20366;DHT22;10341;49.894;8.822;2022-07-11T19:21:54;21.60;99.90
20366;DHT22;10341;49.894;8.822;2022-07-11T19:27:13;21.40;99.90
20366;DHT22;10341;49.894;8.822;2022-07-11T19:32:32;21.20;99.90
20366;DHT22;10341;49.894;8.822;2022-07-11T19:37:51;21.10;99.90
20366;DHT22;10341;49.894;8.822;2022-07-11T19:43:11;20.90;99.90
20366;DHT22;10341;49.894;8.822;2022-07-11T19:48:32;20.60;99.90
20366;DHT22;10341;49.894;8.822;2022-07-11T19:53:52;20.40;99.90
20366;DHT22;10341;49.894;8.822;2022-07-11T19:59:12;20.30;99.90
20366;DHT22;10341;49.894;8.822;2022-07-11T20:04:31;20.20;99.90
20366;DHT22;10341;49.894;8.822;2022-07-11T20:09:50;20.10;99.90
20366;DHT22;10341;49.894;8.822;2022-07-11T20:15:09;20.10;99.90
20366;DHT22;10341;49.894;8.822;2022-07-11T20:20:30;20.00;99.90
20366;DHT22;10341;49.894;8.822;2022-07-11T20:25:49;20.00;99.90
20366;DHT22;10341;49.894;8.822;2022-07-11T20:31:08;19.90;99.90
20366;DHT22;10341;49.894;8.822;2022-07-11T20:36:27;19.80;99.90
20366;DHT22;10341;49.894;8.822;2022-07-11T20:41:47;19.60;99.90
20366;DHT22;10341;49.894;8.822;2022-07-11T20:47:07;19.50;99.90
20366;DHT22;10341;49.894;8.822;2022-07-11T20:52:28;19.40;99.90
20366;DHT22;10341;49.894;8.822;2022-07-11T20:57:46;19.30;99.90
20366;DHT22;10341;49.894;8.822;2022-07-11T21:03:06;19.20;99.90
20366;DHT22;10341;49.894;8.822;2022-07-11T21:08:25;19.10;99.90
20366;DHT22;10341;49.894;8.822;2022-07-11T21:13:44;18.80;99.90
20366;DHT22;10341;49.894;8.822;2022-07-11T21:19:04;18.70;99.90
20366;DHT22;10341;49.894;8.822;2022-07-11T21:24:23;18.40;99.90
20366;DHT22;10341;49.894;8.822;2022-07-11T21:29:42;17.90;99.90
20366;DHT22;10341;49.894;8.822;2022-07-11T21:35:01;17.50;99.90
20366;DHT22;10341;49.894;8.822;2022-07-11T21:40:20;17.20;99.90
20366;DHT22;10341;49.894;8.822;2022-07-11T21:45:39;16.90;99.90
20366;DHT22;10341;49.894;8.822;2022-07-11T21:50:59;16.70;99.90
20366;DHT22;10341;49.894;8.822;2022-07-11T21:56:18;16.40;99.90
20366;DHT22;10341;49.894;8.822;2022-07-11T22:01:37;16.20;99.90
20366;DHT22;10341;49.894;8.822;2022-07-11T22:06:56;16.00;99.90
20366;DHT22;10341;49.894;8.822;2022-07-11T22:12:16;15.90;99.90
20366;DHT22;10341;49.894;8.822;2022-07-11T22:17:35;15.70;99.90
20366;DHT22;10341;49.894;8.822;2022-07-11T22:22:54;15.60;99.90
20366;DHT22;10341;49.894;8.822;2022-07-11T22:28:14;15.50;99.90
20366;DHT22;10341;49.894;8.822;2022-07-11T22:33:33;15.30;99.90
20366;DHT22;10341;49.894;8.822;2022-07-11T22:38:52;15.20;99.90
20366;DHT22;10341;49.894;8.822;2022-07-11T22:44:11;15.10;99.90
20366;DHT22;10341;49.894;8.822;2022-07-11T22:49:30;15.00;99.90
20366;DHT22;10341;49.894;8.822;2022-07-11T22:54:49;14.90;99.90
20366;DHT22;10341;49.894;8.822;2022-07-11T23:00:09;14.70;99.90
20366;DHT22;10341;49.894;8.822;2022-07-11T23:05:29;14.60;99.90
20366;DHT22;10341;49.894;8.822;2022-07-11T23:10:48;14.50;99.90
20366;DHT22;10341;49.894;8.822;2022-07-11T23:16:07;14.40;99.90
20366;DHT22;10341;49.894;8.822;2022-07-11T23:21:26;14.30;99.90
20366;DHT22;10341;49.894;8.822;2022-07-11T23:26:45;14.20;99.90
20366;DHT22;10341;49.894;8.822;2022-07-11T23:32:05;14.10;99.90
20366;DHT22;10341;49.894;8.822;2022-07-11T23:37:24;14.00;99.90
20366;DHT22;10341;49.894;8.822;2022-07-11T23:42:44;13.90;99.90
20366;DHT22;10341;49.894;8.822;2022-07-11T23:48:03;13.90;99.90
20366;DHT22;10341;49.894;8.822;2022-07-11T23:53:22;13.80;99.90
20366;DHT22;10341;49.894;8.822;2022-07-11T23:58:42;13.70;99.90
